sensor_id;sensor_type;location;lat;lon;timestamp;temperature;humidity
83683;DHT22;73663;51.298;5.802;2024-02-23T00:02:23;10.20;56.30
83683;DHT22;73663;51.298;5.802;2024-02-23T00:07:30;10.20;56.30
83683;DHT22;73663;51.298;5.802;2024-02-23T00:12:38;10.20;56.30
83683;DHT22;73663;51.298;5.802;2024-02-23T00:17:45;10.20;56.20
83683;DHT22;73663;51.298;5.802;2024-02-23T00:22:53;10.20;56.20
83683;DHT22;73663;51.298;5.802;2024-02-23T00:28:00;10.20;56.20
83683;DHT22;73663;51.298;5.802;2024-02-23T00:33:08;10.20;56.20
83683;DHT22;73663;51.298;5.802;2024-02-23T00:38:15;10.30;56.20
83683;DHT22;73663;51.298;5.802;2024-02-23T00:43:23;10.30;56.20
83683;DHT22;73663;51.298;5.802;2024-02-23T00:48:30;10.40;56.20
83683;DHT22;73663;51.298;5.802;2024-02-23T00:53:37;10.40;56.20
83683;DHT22;73663;51.298;5.802;2024-02-23T00:58:45;10.40;56.20
83683;DHT22;73663;51.298;5.802;2024-02-23T01:03:52;10.50;56.20
83683;DHT22;73663;51.298;5.802;2024-02-23T01:09:00;10.50;56.20
83683;DHT22;73663;51.298;5.802;2024-02-23T01:14:07;10.60;56.20
83683;DHT22;73663;51.298;5.802;2024-02-23T01:19:15;10.60;56.20
83683;DHT22;73663;51.298;5.802;2024-02-23T01:24:23;10.60;56.20
83683;DHT22;73663;51.298;5.802;2024-02-23T01:29:30;10.60;56.20
83683;DHT22;73663;51.298;5.802;2024-02-23T01:34:38;10.60;56.10
83683;DHT22;73663;51.298;5.802;2024-02-23T01:39:45;10.60;56.20
83683;DHT22;73663;51.298;5.802;2024-02-23T01:44:53;10.50;56.20
83683;DHT22;73663;51.298;5.802;2024-02-23T01:50:01;10.60;56.20
83683;DHT22;73663;51.298;5.802;2024-02-23T01:55:09;10.60;56.20
83683;DHT22;73663;51.298;5.802;2024-02-23T02:00:17;10.60;56.20
83683;DHT22;73663;51.298;5.802;2024-02-23T02:05:25;10.50;56.10
83683;DHT22;73663;51.298;5.802;2024-02-23T02:10:33;10.50;56.10
83683;DHT22;73663;51.298;5.802;2024-02-23T02:15:41;10.40;56.10
83683;DHT22;73663;51.298;5.802;2024-02-23T02:20:54;10.40;56.10
83683;DHT22;73663;51.298;5.802;2024-02-23T02:26:02;10.30;56.10
83683;DHT22;73663;51.298;5.802;2024-02-23T02:31:09;10.30;56.10
83683;DHT22;73663;51.298;5.802;2024-02-23T02:36:17;10.20;56.10
83683;DHT22;73663;51.298;5.802;2024-02-23T02:41:25;10.30;56.10
83683;DHT22;73663;51.298;5.802;2024-02-23T02:46:35;10.20;56.10
83683;DHT22;73663;51.298;5.802;2024-02-23T02:51:43;10.20;56.10
83683;DHT22;73663;51.298;5.802;2024-02-23T02:56:50;10.30;56.10
83683;DHT22;73663;51.298;5.802;2024-02-23T03:01:59;10.30;56.10
83683;DHT22;73663;51.298;5.802;2024-02-23T03:07:06;10.30;56.10
83683;DHT22;73663;51.298;5.802;2024-02-23T03:12:14;10.40;56.20
83683;DHT22;73663;51.298;5.802;2024-02-23T03:17:21;10.40;56.20
83683;DHT22;73663;51.298;5.802;2024-02-23T03:22:29;10.40;56.10
83683;DHT22;73663;51.298;5.802;2024-02-23T03:27:36;10.40;56.10
83683;DHT22;73663;51.298;5.802;2024-02-23T03:32:44;10.40;56.10
83683;DHT22;73663;51.298;5.802;2024-02-23T03:37:52;10.40;56.00
83683;DHT22;73663;51.298;5.802;2024-02-23T03:42:59;10.40;56.10
83683;DHT22;73663;51.298;5.802;2024-02-23T03:48:07;10.50;56.10
83683;DHT22;73663;51.298;5.802;2024-02-23T03:53:14;10.50;56.00
83683;DHT22;73663;51.298;5.802;2024-02-23T03:58:23;10.60;56.00
83683;DHT22;73663;51.298;5.802;2024-02-23T04:03:31;10.50;56.00
83683;DHT22;73663;51.298;5.802;2024-02-23T04:08:38;10.60;56.00
83683;DHT22;73663;51.298;5.802;2024-02-23T04:13:47;10.60;56.00
83683;DHT22;73663;51.298;5.802;2024-02-23T04:18:54;10.60;55.90
83683;DHT22;73663;51.298;5.802;2024-02-23T04:24:02;10.60;56.00
83683;DHT22;73663;51.298;5.802;2024-02-23T04:29:09;10.70;56.00
83683;DHT22;73663;51.298;5.802;2024-02-23T04:34:17;10.70;56.00
83683;DHT22;73663;51.298;5.802;2024-02-23T04:39:25;10.80;56.00
83683;DHT22;73663;51.298;5.802;2024-02-23T04:44:32;10.80;56.00
83683;DHT22;73663;51.298;5.802;2024-02-23T04:49:40;10.90;56.00
83683;DHT22;73663;51.298;5.802;2024-02-23T04:54:47;11.00;56.00
83683;DHT22;73663;51.298;5.802;2024-02-23T04:59:56;11.10;56.00
83683;DHT22;73663;51.298;5.802;2024-02-23T05:05:06;11.20;56.00
83683;DHT22;73663;51.298;5.802;2024-02-23T05:10:14;11.30;55.90
83683;DHT22;73663;51.298;5.802;2024-02-23T05:15:21;11.30;55.90
83683;DHT22;73663;51.298;5.802;2024-02-23T05:20:29;11.40;55.80
83683;DHT22;73663;51.298;5.802;2024-02-23T05:25:36;11.40;55.80
83683;DHT22;73663;51.298;5.802;2024-02-23T05:30:44;11.40;55.80
83683;DHT22;73663;51.298;5.802;2024-02-23T05:35:51;11.40;55.80
83683;DHT22;73663;51.298;5.802;2024-02-23T05:40:59;11.50;55.80
83683;DHT22;73663;51.298;5.802;2024-02-23T05:46:06;11.50;55.70
83683;DHT22;73663;51.298;5.802;2024-02-23T05:51:14;11.40;55.70
83683;DHT22;73663;51.298;5.802;2024-02-23T05:56:21;11.40;55.70
83683;DHT22;73663;51.298;5.802;2024-02-23T06:01:29;11.40;55.70
83683;DHT22;73663;51.298;5.802;2024-02-23T06:06:36;11.50;55.70
83683;DHT22;73663;51.298;5.802;2024-02-23T06:11:44;11.50;55.70
83683;DHT22;73663;51.298;5.802;2024-02-23T06:16:51;11.50;55.60
83683;DHT22;73663;51.298;5.802;2024-02-23T06:21:59;11.50;55.50
83683;DHT22;73663;51.298;5.802;2024-02-23T06:27:06;11.50;55.60
83683;DHT22;73663;51.298;5.802;2024-02-23T06:32:14;11.60;55.50
83683;DHT22;73663;51.298;5.802;2024-02-23T06:37:21;11.60;55.50
83683;DHT22;73663;51.298;5.802;2024-02-23T06:42:29;11.60;55.50
83683;DHT22;73663;51.298;5.802;2024-02-23T06:47:36;11.70;55.50
83683;DHT22;73663;51.298;5.802;2024-02-23T06:52:44;11.70;55.40
83683;DHT22;73663;51.298;5.802;2024-02-23T06:57:52;11.70;55.40
83683;DHT22;73663;51.298;5.802;2024-02-23T07:02:59;11.70;55.40
83683;DHT22;73663;51.298;5.802;2024-02-23T07:08:08;11.70;55.30
83683;DHT22;73663;51.298;5.802;2024-02-23T07:13:15;11.80;55.30
83683;DHT22;73663;51.298;5.802;2024-02-23T07:18:23;11.80;55.30
83683;DHT22;73663;51.298;5.802;2024-02-23T07:23:31;11.80;55.20
83683;DHT22;73663;51.298;5.802;2024-02-23T07:28:38;11.80;55.30
83683;DHT22;73663;51.298;5.802;2024-02-23T07:33:46;11.90;55.20
83683;DHT22;73663;51.298;5.802;2024-02-23T07:38:53;11.90;55.20
83683;DHT22;73663;51.298;5.802;2024-02-23T07:44:01;12.00;55.30
83683;DHT22;73663;51.298;5.802;2024-02-23T07:49:08;12.00;55.10
83683;DHT22;73663;51.298;5.802;2024-02-23T07:54:16;12.00;55.10
83683;DHT22;73663;51.298;5.802;2024-02-23T07:59:23;12.10;55.20
83683;DHT22;73663;51.298;5.802;2024-02-23T08:04:31;12.20;55.20
83683;DHT22;73663;51.298;5.802;2024-02-23T08:09:38;12.20;55.20
83683;DHT22;73663;51.298;5.802;2024-02-23T08:14:46;12.30;55.10
83683;DHT22;73663;51.298;5.802;2024-02-23T08:19:53;12.40;55.10
83683;DHT22;73663;51.298;5.802;2024-02-23T08:25:01;12.50;55.20
83683;DHT22;73663;51.298;5.802;2024-02-23T08:30:09;12.50;55.10
83683;DHT22;73663;51.298;5.802;2024-02-23T08:35:16;12.70;55.10
83683;DHT22;73663;51.298;5.802;2024-02-23T08:40:24;12.70;55.00
83683;DHT22;73663;51.298;5.802;2024-02-23T08:45:31;12.70;55.00
83683;DHT22;73663;51.298;5.802;2024-02-23T08:50:38;12.70;55.00
83683;DHT22;73663;51.298;5.802;2024-02-23T08:55:46;12.90;55.00
83683;DHT22;73663;51.298;5.802;2024-02-23T09:00:53;13.00;55.00
83683;DHT22;73663;51.298;5.802;2024-02-23T09:06:01;13.10;55.00
83683;DHT22;73663;51.298;5.802;2024-02-23T09:11:08;13.20;54.80
83683;DHT22;73663;51.298;5.802;2024-02-23T09:16:16;13.30;54.90
83683;DHT22;73663;51.298;5.802;2024-02-23T09:21:23;13.50;55.00
83683;DHT22;73663;51.298;5.802;2024-02-23T09:26:31;13.60;54.90
83683;DHT22;73663;51.298;5.802;2024-02-23T09:31:38;13.60;54.70
83683;DHT22;73663;51.298;5.802;2024-02-23T09:36:46;13.50;54.60
83683;DHT22;73663;51.298;5.802;2024-02-23T09:41:53;13.50;54.70
83683;DHT22;73663;51.298;5.802;2024-02-23T09:47:02;13.50;54.60
83683;DHT22;73663;51.298;5.802;2024-02-23T09:52:13;13.50;54.60
83683;DHT22;73663;51.298;5.802;2024-02-23T09:57:20;13.50;54.50
83683;DHT22;73663;51.298;5.802;2024-02-23T10:02:28;13.40;54.50
83683;DHT22;73663;51.298;5.802;2024-02-23T10:07:36;13.50;54.60
83683;DHT22;73663;51.298;5.802;2024-02-23T10:12:43;13.50;54.40
83683;DHT22;73663;51.298;5.802;2024-02-23T10:17:51;13.60;54.60
83683;DHT22;73663;51.298;5.802;2024-02-23T10:22:59;13.90;54.60
83683;DHT22;73663;51.298;5.802;2024-02-23T10:28:09;13.90;54.30
83683;DHT22;73663;51.298;5.802;2024-02-23T10:33:17;13.90;54.30
83683;DHT22;73663;51.298;5.802;2024-02-23T10:38:24;13.90;54.30
83683;DHT22;73663;51.298;5.802;2024-02-23T10:43:35;13.90;54.20
83683;DHT22;73663;51.298;5.802;2024-02-23T10:48:46;13.70;54.00
83683;DHT22;73663;51.298;5.802;2024-02-23T10:53:56;13.60;53.90
83683;DHT22;73663;51.298;5.802;2024-02-23T10:59:04;13.50;54.10
83683;DHT22;73663;51.298;5.802;2024-02-23T11:04:12;13.60;54.20
83683;DHT22;73663;51.298;5.802;2024-02-23T11:09:22;13.70;54.20
83683;DHT22;73663;51.298;5.802;2024-02-23T11:14:37;13.90;54.10
83683;DHT22;73663;51.298;5.802;2024-02-23T11:19:48;14.00;54.00
83683;DHT22;73663;51.298;5.802;2024-02-23T11:24:59;14.10;54.00
83683;DHT22;73663;51.298;5.802;2024-02-23T11:30:07;14.10;54.00
83683;DHT22;73663;51.298;5.802;2024-02-23T11:35:18;14.00;53.90
83683;DHT22;73663;51.298;5.802;2024-02-23T11:40:28;13.90;53.90
83683;DHT22;73663;51.298;5.802;2024-02-23T11:45:36;13.90;54.00
83683;DHT22;73663;51.298;5.802;2024-02-23T11:50:44;13.90;54.00
83683;DHT22;73663;51.298;5.802;2024-02-23T11:55:51;13.90;53.90
83683;DHT22;73663;51.298;5.802;2024-02-23T12:00:59;13.90;53.90
83683;DHT22;73663;51.298;5.802;2024-02-23T12:06:06;14.00;53.80
83683;DHT22;73663;51.298;5.802;2024-02-23T12:11:14;14.00;53.90
83683;DHT22;73663;51.298;5.802;2024-02-23T12:16:22;14.10;53.80
83683;DHT22;73663;51.298;5.802;2024-02-23T12:21:30;14.10;53.70
83683;DHT22;73663;51.298;5.802;2024-02-23T12:26:37;14.10;53.60
83683;DHT22;73663;51.298;5.802;2024-02-23T12:31:45;14.00;53.60
83683;DHT22;73663;51.298;5.802;2024-02-23T12:36:53;14.00;53.70
83683;DHT22;73663;51.298;5.802;2024-02-23T12:42:02;13.90;53.70
83683;DHT22;73663;51.298;5.802;2024-02-23T12:47:09;14.00;53.70
83683;DHT22;73663;51.298;5.802;2024-02-23T12:52:17;14.00;53.60
83683;DHT22;73663;51.298;5.802;2024-02-23T12:57:24;14.10;53.70
83683;DHT22;73663;51.298;5.802;2024-02-23T13:02:32;14.20;53.60
83683;DHT22;73663;51.298;5.802;2024-02-23T13:07:39;14.30;53.60
83683;DHT22;73663;51.298;5.802;2024-02-23T13:12:47;14.30;53.60
83683;DHT22;73663;51.298;5.802;2024-02-23T13:17:54;14.20;53.40
83683;DHT22;73663;51.298;5.802;2024-02-23T13:23:01;14.20;53.40
83683;DHT22;73663;51.298;5.802;2024-02-23T13:28:09;14.20;53.40
83683;DHT22;73663;51.298;5.802;2024-02-23T13:33:17;14.20;53.60
83683;DHT22;73663;51.298;5.802;2024-02-23T13:38:25;14.40;53.50
83683;DHT22;73663;51.298;5.802;2024-02-23T13:43:32;14.50;53.50
83683;DHT22;73663;51.298;5.802;2024-02-23T13:48:40;14.60;53.40
83683;DHT22;73663;51.298;5.802;2024-02-23T13:53:47;14.70;53.40
83683;DHT22;73663;51.298;5.802;2024-02-23T13:58:55;14.70;53.20
83683;DHT22;73663;51.298;5.802;2024-02-23T14:04:07;14.70;53.10
83683;DHT22;73663;51.298;5.802;2024-02-23T14:09:15;14.60;53.00
83683;DHT22;73663;51.298;5.802;2024-02-23T14:14:22;14.50;53.20
83683;DHT22;73663;51.298;5.802;2024-02-23T14:19:30;14.40;53.20
83683;DHT22;73663;51.298;5.802;2024-02-23T14:24:37;14.30;53.20
83683;DHT22;73663;51.298;5.802;2024-02-23T14:29:45;14.40;53.40
83683;DHT22;73663;51.298;5.802;2024-02-23T14:34:53;14.50;53.40
83683;DHT22;73663;51.298;5.802;2024-02-23T14:40:00;14.60;53.30
83683;DHT22;73663;51.298;5.802;2024-02-23T14:45:08;14.60;53.20
83683;DHT22;73663;51.298;5.802;2024-02-23T14:50:15;14.60;53.20
83683;DHT22;73663;51.298;5.802;2024-02-23T14:55:23;14.60;53.00
83683;DHT22;73663;51.298;5.802;2024-02-23T15:00:30;14.60;53.00
83683;DHT22;73663;51.298;5.802;2024-02-23T15:05:38;14.70;53.10
83683;DHT22;73663;51.298;5.802;2024-02-23T15:10:46;14.70;53.00
83683;DHT22;73663;51.298;5.802;2024-02-23T15:15:53;14.60;53.00
83683;DHT22;73663;51.298;5.802;2024-02-23T15:21:01;14.70;53.00
83683;DHT22;73663;51.298;5.802;2024-02-23T15:26:08;14.90;53.00
83683;DHT22;73663;51.298;5.802;2024-02-23T15:31:16;15.00;52.90
83683;DHT22;73663;51.298;5.802;2024-02-23T15:36:23;15.10;52.80
83683;DHT22;73663;51.298;5.802;2024-02-23T15:41:31;15.40;52.90
83683;DHT22;73663;51.298;5.802;2024-02-23T15:46:39;15.60;52.70
83683;DHT22;73663;51.298;5.802;2024-02-23T15:51:49;15.80;52.90
83683;DHT22;73663;51.298;5.802;2024-02-23T15:56:57;16.40;52.60
83683;DHT22;73663;51.298;5.802;2024-02-23T16:02:04;16.80;52.40
83683;DHT22;73663;51.298;5.802;2024-02-23T16:07:12;17.50;52.60
83683;DHT22;73663;51.298;5.802;2024-02-23T16:12:20;18.10;52.50
83683;DHT22;73663;51.298;5.802;2024-02-23T16:17:27;19.00;51.80
83683;DHT22;73663;51.298;5.802;2024-02-23T16:22:35;19.70;51.90
83683;DHT22;73663;51.298;5.802;2024-02-23T16:27:43;20.40;51.70
83683;DHT22;73663;51.298;5.802;2024-02-23T16:32:50;20.50;51.30
83683;DHT22;73663;51.298;5.802;2024-02-23T16:37:58;19.90;50.90
83683;DHT22;73663;51.298;5.802;2024-02-23T16:43:05;18.50;50.90
83683;DHT22;73663;51.298;5.802;2024-02-23T16:48:12;17.20;51.20
83683;DHT22;73663;51.298;5.802;2024-02-23T16:53:20;16.20;51.20
83683;DHT22;73663;51.298;5.802;2024-02-23T16:58:27;15.50;51.40
83683;DHT22;73663;51.298;5.802;2024-02-23T17:03:37;14.90;51.40
83683;DHT22;73663;51.298;5.802;2024-02-23T17:08:45;14.50;51.40
83683;DHT22;73663;51.298;5.802;2024-02-23T17:13:52;14.10;51.40
83683;DHT22;73663;51.298;5.802;2024-02-23T17:19:00;13.70;51.50
83683;DHT22;73663;51.298;5.802;2024-02-23T17:24:07;13.50;51.50
83683;DHT22;73663;51.298;5.802;2024-02-23T17:29:15;13.20;51.60
83683;DHT22;73663;51.298;5.802;2024-02-23T17:34:22;13.10;51.70
83683;DHT22;73663;51.298;5.802;2024-02-23T17:39:29;12.90;51.70
83683;DHT22;73663;51.298;5.802;2024-02-23T17:44:37;12.80;51.70
83683;DHT22;73663;51.298;5.802;2024-02-23T17:49:44;12.70;51.80
83683;DHT22;73663;51.298;5.802;2024-02-23T17:54:52;12.70;51.80
83683;DHT22;73663;51.298;5.802;2024-02-23T17:59:59;12.70;51.90
83683;DHT22;73663;51.298;5.802;2024-02-23T18:05:07;12.60;51.90
83683;DHT22;73663;51.298;5.802;2024-02-23T18:10:14;12.60;52.00
83683;DHT22;73663;51.298;5.802;2024-02-23T18:15:22;12.60;52.00
83683;DHT22;73663;51.298;5.802;2024-02-23T18:20:30;12.70;52.10
83683;DHT22;73663;51.298;5.802;2024-02-23T18:25:38;12.80;52.20
83683;DHT22;73663;51.298;5.802;2024-02-23T18:30:46;12.90;52.20
83683;DHT22;73663;51.298;5.802;2024-02-23T18:35:53;13.00;52.30
83683;DHT22;73663;51.298;5.802;2024-02-23T18:41:01;13.10;52.30
83683;DHT22;73663;51.298;5.802;2024-02-23T18:46:08;13.20;52.30
83683;DHT22;73663;51.298;5.802;2024-02-23T18:51:16;13.30;52.40
83683;DHT22;73663;51.298;5.802;2024-02-23T18:56:24;13.30;52.40
83683;DHT22;73663;51.298;5.802;2024-02-23T19:01:31;13.30;52.40
83683;DHT22;73663;51.298;5.802;2024-02-23T19:06:39;13.30;52.50
83683;DHT22;73663;51.298;5.802;2024-02-23T19:11:46;13.20;52.50
83683;DHT22;73663;51.298;5.802;2024-02-23T19:16:54;13.10;52.50
83683;DHT22;73663;51.298;5.802;2024-02-23T19:22:02;13.00;52.50
83683;DHT22;73663;51.298;5.802;2024-02-23T19:27:09;12.90;52.50
83683;DHT22;73663;51.298;5.802;2024-02-23T19:32:17;12.70;52.50
83683;DHT22;73663;51.298;5.802;2024-02-23T19:37:25;12.70;52.60
83683;DHT22;73663;51.298;5.802;2024-02-23T19:42:32;12.60;52.60
83683;DHT22;73663;51.298;5.802;2024-02-23T19:47:40;12.50;52.60
83683;DHT22;73663;51.298;5.802;2024-02-23T19:52:47;12.50;52.60
83683;DHT22;73663;51.298;5.802;2024-02-23T19:57:55;12.50;52.60
83683;DHT22;73663;51.298;5.802;2024-02-23T20:03:02;12.50;52.70
83683;DHT22;73663;51.298;5.802;2024-02-23T20:08:10;12.50;52.70
83683;DHT22;73663;51.298;5.802;2024-02-23T20:13:17;12.50;52.80
83683;DHT22;73663;51.298;5.802;2024-02-23T20:18:25;12.50;52.70
83683;DHT22;73663;51.298;5.802;2024-02-23T20:23:32;12.50;52.80
83683;DHT22;73663;51.298;5.802;2024-02-23T20:28:40;12.30;52.80
83683;DHT22;73663;51.298;5.802;2024-02-23T20:33:47;12.20;52.80
83683;DHT22;73663;51.298;5.802;2024-02-23T20:38:55;12.10;52.80
83683;DHT22;73663;51.298;5.802;2024-02-23T20:44:02;12.00;52.90
83683;DHT22;73663;51.298;5.802;2024-02-23T20:49:10;11.90;53.00
83683;DHT22;73663;51.298;5.802;2024-02-23T20:54:17;11.90;53.00
83683;DHT22;73663;51.298;5.802;2024-02-23T20:59:25;11.80;53.00
83683;DHT22;73663;51.298;5.802;2024-02-23T21:04:32;11.70;53.00
83683;DHT22;73663;51.298;5.802;2024-02-23T21:09:40;11.70;52.90
83683;DHT22;73663;51.298;5.802;2024-02-23T21:14:47;11.50;53.00
83683;DHT22;73663;51.298;5.802;2024-02-23T21:19:55;11.50;53.00
83683;DHT22;73663;51.298;5.802;2024-02-23T21:25:02;11.50;53.00
83683;DHT22;73663;51.298;5.802;2024-02-23T21:30:10;11.40;53.00
83683;DHT22;73663;51.298;5.802;2024-02-23T21:35:17;11.40;53.00
83683;DHT22;73663;51.298;5.802;2024-02-23T21:40:25;11.50;53.20
83683;DHT22;73663;51.298;5.802;2024-02-23T21:45:32;11.60;53.20
83683;DHT22;73663;51.298;5.802;2024-02-23T21:50:40;11.70;53.20
83683;DHT22;73663;51.298;5.802;2024-02-23T21:55:47;11.70;53.20
83683;DHT22;73663;51.298;5.802;2024-02-23T22:00:55;11.60;53.20
83683;DHT22;73663;51.298;5.802;2024-02-23T22:06:02;11.50;53.20
83683;DHT22;73663;51.298;5.802;2024-02-23T22:11:10;11.40;53.10
83683;DHT22;73663;51.298;5.802;2024-02-23T22:16:18;11.30;53.10
83683;DHT22;73663;51.298;5.802;2024-02-23T22:21:25;11.10;53.10
83683;DHT22;73663;51.298;5.802;2024-02-23T22:26:32;11.10;53.30
83683;DHT22;73663;51.298;5.802;2024-02-23T22:31:45;11.00;53.30
83683;DHT22;73663;51.298;5.802;2024-02-23T22:36:53;11.00;53.40
83683;DHT22;73663;51.298;5.802;2024-02-23T22:42:00;11.00;53.30
83683;DHT22;73663;51.298;5.802;2024-02-23T22:47:08;11.00;53.30
83683;DHT22;73663;51.298;5.802;2024-02-23T22:52:15;11.10;53.50
83683;DHT22;73663;51.298;5.802;2024-02-23T22:57:23;11.10;53.50
83683;DHT22;73663;51.298;5.802;2024-02-23T23:02:30;11.20;53.50
83683;DHT22;73663;51.298;5.802;2024-02-23T23:07:38;11.30;53.60
83683;DHT22;73663;51.298;5.802;2024-02-23T23:12:45;11.30;53.50
83683;DHT22;73663;51.298;5.802;2024-02-23T23:17:53;11.30;53.50
83683;DHT22;73663;51.298;5.802;2024-02-23T23:23:00;11.30;53.60
83683;DHT22;73663;51.298;5.802;2024-02-23T23:28:08;11.40;53.60
83683;DHT22;73663;51.298;5.802;2024-02-23T23:33:15;11.40;53.70
83683;DHT22;73663;51.298;5.802;2024-02-23T23:38:23;11.40;53.80
83683;DHT22;73663;51.298;5.802;2024-02-23T23:43:30;11.40;53.70
83683;DHT22;73663;51.298;5.802;2024-02-23T23:48:38;11.40;53.80
83683;DHT22;73663;51.298;5.802;2024-02-23T23:53:45;11.40;53.80
83683;DHT22;73663;51.298;5.802;2024-02-23T23:58:53;11.40;53.90
